Saginaw, Alabama
Current Conditions -  °F | °C
As of 5:53 PM on Saturday 25 Oct 2014 (Local Time) from KEET Reporting Station
Clear Clear  
Wind Chill: 69°   Ceiling: Unl
Heat Index: 69°   Visibility: 10mi
Dew Point: 59°   Wind: 0mph
Humidity: 70%   Direction: NA
Pressure: 30.05"   Gusts: NA
Location:  33.22°N, 86.79°W
Report Text: KEET 252253Z AUTO 00000KT 10SM CLR 21/15 A3005 RMK AO2 SLP171 T02060150
Loading
Personal Weather Stations






























Interactive Weather Map
Tropical Storm Tracking
New forecast layout! Learn more

10-Day Weather Forecast

Advertisements
Track Severe Weather on mobile